sensor_id;sensor_type;location;lat;lon;timestamp;P1;durP1;ratioP1;P2;durP2;ratioP2
62582;SDS011;48641;51.676;5.808;2023-03-15T00:00:47;4.13;;;1.67;;
62582;SDS011;48641;51.676;5.808;2023-03-15T00:03:13;3.45;;;1.40;;
62582;SDS011;48641;51.676;5.808;2023-03-15T00:05:44;4.47;;;1.33;;
62582;SDS011;48641;51.676;5.808;2023-03-15T00:08:11;5.90;;;1.30;;
62582;SDS011;48641;51.676;5.808;2023-03-15T00:10:46;4.25;;;1.50;;
62582;SDS011;48641;51.676;5.808;2023-03-15T00:13:12;4.25;;;1.40;;
62582;SDS011;48641;51.676;5.808;2023-03-15T00:15:46;5.05;;;1.60;;
62582;SDS011;48641;51.676;5.808;2023-03-15T00:18:13;3.70;;;1.30;;
62582;SDS011;48641;51.676;5.808;2023-03-15T00:20:40;4.38;;;1.20;;
62582;SDS011;48641;51.676;5.808;2023-03-15T00:23:06;4.18;;;1.20;;
62582;SDS011;48641;51.676;5.808;2023-03-15T00:25:31;5.30;;;1.40;;
62582;SDS011;48641;51.676;5.808;2023-03-15T00:27:57;4.38;;;1.30;;
62582;SDS011;48641;51.676;5.808;2023-03-15T00:30:23;4.18;;;1.23;;
62582;SDS011;48641;51.676;5.808;2023-03-15T00:32:50;4.88;;;1.20;;
62582;SDS011;48641;51.676;5.808;2023-03-15T00:35:18;2.65;;;1.00;;
62582;SDS011;48641;51.676;5.808;2023-03-15T00:37:44;2.55;;;0.90;;
62582;SDS011;48641;51.676;5.808;2023-03-15T00:40:10;2.88;;;1.00;;
62582;SDS011;48641;51.676;5.808;2023-03-15T00:42:37;5.05;;;1.20;;
62582;SDS011;48641;51.676;5.808;2023-03-15T00:45:03;4.85;;;1.30;;
62582;SDS011;48641;51.676;5.808;2023-03-15T00:47:29;4.03;;;1.38;;
62582;SDS011;48641;51.676;5.808;2023-03-15T00:49:55;3.55;;;1.08;;
62582;SDS011;48641;51.676;5.808;2023-03-15T00:52:21;2.80;;;0.90;;
62582;SDS011;48641;51.676;5.808;2023-03-15T00:54:53;3.33;;;1.20;;
62582;SDS011;48641;51.676;5.808;2023-03-15T00:57:20;3.53;;;0.95;;
62582;SDS011;48641;51.676;5.808;2023-03-15T00:59:46;3.38;;;1.00;;
62582;SDS011;48641;51.676;5.808;2023-03-15T01:02:12;4.03;;;1.20;;
62582;SDS011;48641;51.676;5.808;2023-03-15T01:04:37;2.85;;;1.08;;
62582;SDS011;48641;51.676;5.808;2023-03-15T01:07:03;3.53;;;1.17;;
62582;SDS011;48641;51.676;5.808;2023-03-15T01:09:30;2.17;;;1.20;;
62582;SDS011;48641;51.676;5.808;2023-03-15T01:11:56;2.83;;;0.95;;
62582;SDS011;48641;51.676;5.808;2023-03-15T01:14:22;3.33;;;0.90;;
62582;SDS011;48641;51.676;5.808;2023-03-15T01:16:51;2.92;;;1.00;;
62582;SDS011;48641;51.676;5.808;2023-03-15T01:19:16;1.35;;;0.60;;
62582;SDS011;48641;51.676;5.808;2023-03-15T01:21:42;1.98;;;0.85;;
62582;SDS011;48641;51.676;5.808;2023-03-15T01:24:11;1.73;;;0.70;;
62582;SDS011;48641;51.676;5.808;2023-03-15T01:26:38;2.58;;;0.77;;
62582;SDS011;48641;51.676;5.808;2023-03-15T01:29:04;1.65;;;0.70;;
62582;SDS011;48641;51.676;5.808;2023-03-15T01:31:30;2.63;;;0.80;;
62582;SDS011;48641;51.676;5.808;2023-03-15T01:33:56;1.67;;;0.95;;
62582;SDS011;48641;51.676;5.808;2023-03-15T01:36:23;3.08;;;0.90;;
62582;SDS011;48641;51.676;5.808;2023-03-15T01:38:49;1.92;;;0.90;;
62582;SDS011;48641;51.676;5.808;2023-03-15T01:41:15;2.47;;;0.90;;
62582;SDS011;48641;51.676;5.808;2023-03-15T01:43:42;1.65;;;0.73;;
62582;SDS011;48641;51.676;5.808;2023-03-15T01:46:16;2.97;;;1.10;;
62582;SDS011;48641;51.676;5.808;2023-03-15T01:48:48;1.70;;;0.70;;
62582;SDS011;48641;51.676;5.808;2023-03-15T01:54:03;2.58;;;0.80;;
62582;SDS011;48641;51.676;5.808;2023-03-15T01:56:49;2.15;;;0.70;;
62582;SDS011;48641;51.676;5.808;2023-03-15T01:59:21;3.35;;;0.80;;
62582;SDS011;48641;51.676;5.808;2023-03-15T02:01:51;1.38;;;0.80;;
62582;SDS011;48641;51.676;5.808;2023-03-15T02:04:19;2.05;;;0.80;;
62582;SDS011;48641;51.676;5.808;2023-03-15T02:06:49;2.30;;;0.90;;
62582;SDS011;48641;51.676;5.808;2023-03-15T02:09:23;1.40;;;0.80;;
62582;SDS011;48641;51.676;5.808;2023-03-15T02:11:55;3.13;;;0.95;;
62582;SDS011;48641;51.676;5.808;2023-03-15T02:14:21;1.55;;;0.60;;
62582;SDS011;48641;51.676;5.808;2023-03-15T02:16:47;1.95;;;0.70;;
62582;SDS011;48641;51.676;5.808;2023-03-15T02:19:20;1.92;;;0.77;;
62582;SDS011;48641;51.676;5.808;2023-03-15T02:22:49;1.80;;;0.70;;
62582;SDS011;48641;51.676;5.808;2023-03-15T02:28:10;2.55;;;0.70;;
62582;SDS011;48641;51.676;5.808;2023-03-15T02:30:38;1.90;;;0.60;;
62582;SDS011;48641;51.676;5.808;2023-03-15T02:33:05;0.90;;;0.55;;
62582;SDS011;48641;51.676;5.808;2023-03-15T02:35:35;1.95;;;0.60;;
62582;SDS011;48641;51.676;5.808;2023-03-15T02:38:00;1.58;;;0.60;;
62582;SDS011;48641;51.676;5.808;2023-03-15T02:40:29;1.37;;;0.57;;
62582;SDS011;48641;51.676;5.808;2023-03-15T02:42:56;1.30;;;0.60;;
62582;SDS011;48641;51.676;5.808;2023-03-15T02:45:25;0.82;;;0.57;;
62582;SDS011;48641;51.676;5.808;2023-03-15T02:47:53;2.63;;;0.70;;
62582;SDS011;48641;51.676;5.808;2023-03-15T02:50:20;1.40;;;0.70;;
62582;SDS011;48641;51.676;5.808;2023-03-15T02:52:45;1.17;;;0.50;;
62582;SDS011;48641;51.676;5.808;2023-03-15T02:55:11;1.65;;;0.60;;
62582;SDS011;48641;51.676;5.808;2023-03-15T02:57:37;2.25;;;0.70;;
62582;SDS011;48641;51.676;5.808;2023-03-15T03:00:03;1.08;;;0.60;;
62582;SDS011;48641;51.676;5.808;2023-03-15T03:02:38;1.98;;;0.60;;
62582;SDS011;48641;51.676;5.808;2023-03-15T03:05:05;1.40;;;0.57;;
62582;SDS011;48641;51.676;5.808;2023-03-15T03:07:31;2.03;;;0.70;;
62582;SDS011;48641;51.676;5.808;2023-03-15T03:09:57;1.05;;;0.50;;
62582;SDS011;48641;51.676;5.808;2023-03-15T03:12:23;2.00;;;0.60;;
62582;SDS011;48641;51.676;5.808;2023-03-15T03:14:48;1.27;;;0.60;;
62582;SDS011;48641;51.676;5.808;2023-03-15T03:17:14;2.05;;;0.70;;
62582;SDS011;48641;51.676;5.808;2023-03-15T03:19:39;1.80;;;0.75;;
62582;SDS011;48641;51.676;5.808;2023-03-15T03:22:05;1.42;;;0.55;;
62582;SDS011;48641;51.676;5.808;2023-03-15T03:24:31;1.00;;;0.70;;
62582;SDS011;48641;51.676;5.808;2023-03-15T03:26:57;0.95;;;0.60;;
62582;SDS011;48641;51.676;5.808;2023-03-15T03:29:24;1.92;;;0.50;;
62582;SDS011;48641;51.676;5.808;2023-03-15T03:31:50;0.93;;;0.70;;
62582;SDS011;48641;51.676;5.808;2023-03-15T03:34:16;1.17;;;0.60;;
62582;SDS011;48641;51.676;5.808;2023-03-15T03:36:41;0.80;;;0.50;;
62582;SDS011;48641;51.676;5.808;2023-03-15T03:39:08;2.20;;;0.75;;
62582;SDS011;48641;51.676;5.808;2023-03-15T03:41:34;1.85;;;0.70;;
62582;SDS011;48641;51.676;5.808;2023-03-15T03:44:00;1.23;;;0.60;;
62582;SDS011;48641;51.676;5.808;2023-03-15T03:46:26;2.65;;;0.70;;
62582;SDS011;48641;51.676;5.808;2023-03-15T03:48:52;1.58;;;0.60;;
62582;SDS011;48641;51.676;5.808;2023-03-15T03:51:18;1.88;;;0.77;;
62582;SDS011;48641;51.676;5.808;2023-03-15T03:53:44;1.60;;;0.70;;
62582;SDS011;48641;51.676;5.808;2023-03-15T03:56:10;1.92;;;0.50;;
62582;SDS011;48641;51.676;5.808;2023-03-15T03:58:35;1.30;;;0.70;;
62582;SDS011;48641;51.676;5.808;2023-03-15T04:01:04;0.90;;;0.60;;
62582;SDS011;48641;51.676;5.808;2023-03-15T04:03:30;1.90;;;0.67;;
62582;SDS011;48641;51.676;5.808;2023-03-15T04:05:56;2.30;;;0.73;;
62582;SDS011;48641;51.676;5.808;2023-03-15T04:08:25;1.05;;;0.60;;
62582;SDS011;48641;51.676;5.808;2023-03-15T04:10:55;2.40;;;0.90;;
62582;SDS011;48641;51.676;5.808;2023-03-15T04:13:21;1.23;;;0.63;;
62582;SDS011;48641;51.676;5.808;2023-03-15T04:15:48;1.30;;;0.70;;
62582;SDS011;48641;51.676;5.808;2023-03-15T04:18:14;1.13;;;0.70;;
62582;SDS011;48641;51.676;5.808;2023-03-15T04:20:40;1.98;;;0.80;;
62582;SDS011;48641;51.676;5.808;2023-03-15T04:23:14;1.55;;;0.63;;
62582;SDS011;48641;51.676;5.808;2023-03-15T04:25:43;1.42;;;0.60;;
62582;SDS011;48641;51.676;5.808;2023-03-15T04:28:11;1.45;;;0.60;;
62582;SDS011;48641;51.676;5.808;2023-03-15T04:30:37;0.85;;;0.60;;
62582;SDS011;48641;51.676;5.808;2023-03-15T04:33:03;1.98;;;0.60;;
62582;SDS011;48641;51.676;5.808;2023-03-15T04:35:30;2.00;;;0.80;;
62582;SDS011;48641;51.676;5.808;2023-03-15T04:37:59;1.70;;;0.80;;
62582;SDS011;48641;51.676;5.808;2023-03-15T04:40:25;2.03;;;0.65;;
62582;SDS011;48641;51.676;5.808;2023-03-15T04:42:52;1.98;;;0.73;;
62582;SDS011;48641;51.676;5.808;2023-03-15T04:47:51;2.42;;;0.80;;
62582;SDS011;48641;51.676;5.808;2023-03-15T04:50:17;2.10;;;0.70;;
62582;SDS011;48641;51.676;5.808;2023-03-15T04:52:43;1.48;;;0.70;;
62582;SDS011;48641;51.676;5.808;2023-03-15T04:55:10;2.65;;;0.90;;
62582;SDS011;48641;51.676;5.808;2023-03-15T04:57:35;1.50;;;0.90;;
62582;SDS011;48641;51.676;5.808;2023-03-15T05:00:02;3.83;;;1.08;;
62582;SDS011;48641;51.676;5.808;2023-03-15T05:02:31;2.63;;;0.88;;
62582;SDS011;48641;51.676;5.808;2023-03-15T05:04:57;2.15;;;0.90;;
62582;SDS011;48641;51.676;5.808;2023-03-15T05:07:23;2.53;;;0.98;;
62582;SDS011;48641;51.676;5.808;2023-03-15T05:09:49;2.67;;;0.90;;
62582;SDS011;48641;51.676;5.808;2023-03-15T05:12:15;1.67;;;0.80;;
62582;SDS011;48641;51.676;5.808;2023-03-15T05:14:40;3.53;;;1.20;;
62582;SDS011;48641;51.676;5.808;2023-03-15T05:17:06;2.20;;;0.98;;
62582;SDS011;48641;51.676;5.808;2023-03-15T05:19:32;2.35;;;1.17;;
62582;SDS011;48641;51.676;5.808;2023-03-15T05:22:00;2.42;;;1.10;;
62582;SDS011;48641;51.676;5.808;2023-03-15T05:24:27;3.13;;;1.20;;
62582;SDS011;48641;51.676;5.808;2023-03-15T05:26:53;2.20;;;1.00;;
62582;SDS011;48641;51.676;5.808;2023-03-15T05:29:19;2.88;;;1.02;;
62582;SDS011;48641;51.676;5.808;2023-03-15T05:31:46;2.45;;;1.00;;
62582;SDS011;48641;51.676;5.808;2023-03-15T05:34:12;2.70;;;1.20;;
62582;SDS011;48641;51.676;5.808;2023-03-15T05:36:38;3.13;;;1.00;;
62582;SDS011;48641;51.676;5.808;2023-03-15T05:39:04;3.42;;;1.10;;
62582;SDS011;48641;51.676;5.808;2023-03-15T05:41:30;1.83;;;0.90;;
62582;SDS011;48641;51.676;5.808;2023-03-15T05:43:55;2.55;;;1.00;;
62582;SDS011;48641;51.676;5.808;2023-03-15T05:46:21;2.58;;;1.10;;
62582;SDS011;48641;51.676;5.808;2023-03-15T05:48:47;3.35;;;1.23;;
62582;SDS011;48641;51.676;5.808;2023-03-15T05:51:13;3.58;;;1.10;;
62582;SDS011;48641;51.676;5.808;2023-03-15T05:53:39;2.05;;;1.10;;
62582;SDS011;48641;51.676;5.808;2023-03-15T05:56:05;2.42;;;1.10;;
62582;SDS011;48641;51.676;5.808;2023-03-15T05:58:32;2.88;;;0.95;;
62582;SDS011;48641;51.676;5.808;2023-03-15T06:00:57;3.22;;;1.20;;
62582;SDS011;48641;51.676;5.808;2023-03-15T06:03:25;2.65;;;1.00;;
62582;SDS011;48641;51.676;5.808;2023-03-15T06:05:51;3.35;;;1.30;;
62582;SDS011;48641;51.676;5.808;2023-03-15T06:08:17;2.85;;;1.25;;
62582;SDS011;48641;51.676;5.808;2023-03-15T06:10:42;2.70;;;1.10;;
62582;SDS011;48641;51.676;5.808;2023-03-15T06:13:08;3.13;;;1.20;;
62582;SDS011;48641;51.676;5.808;2023-03-15T06:15:34;3.30;;;1.55;;
62582;SDS011;48641;51.676;5.808;2023-03-15T06:17:59;2.17;;;1.02;;
62582;SDS011;48641;51.676;5.808;2023-03-15T06:20:25;4.13;;;1.38;;
62582;SDS011;48641;51.676;5.808;2023-03-15T06:22:50;2.50;;;1.20;;
62582;SDS011;48641;51.676;5.808;2023-03-15T06:25:16;3.60;;;1.58;;
62582;SDS011;48641;51.676;5.808;2023-03-15T06:27:42;4.43;;;1.35;;
62582;SDS011;48641;51.676;5.808;2023-03-15T06:30:08;5.20;;;1.52;;
62582;SDS011;48641;51.676;5.808;2023-03-15T06:32:34;3.17;;;1.20;;
62582;SDS011;48641;51.676;5.808;2023-03-15T06:35:00;3.70;;;1.42;;
62582;SDS011;48641;51.676;5.808;2023-03-15T06:37:25;4.28;;;1.48;;
62582;SDS011;48641;51.676;5.808;2023-03-15T06:39:51;3.05;;;1.15;;
62582;SDS011;48641;51.676;5.808;2023-03-15T06:42:18;3.17;;;1.20;;
62582;SDS011;48641;51.676;5.808;2023-03-15T06:44:43;3.20;;;1.50;;
62582;SDS011;48641;51.676;5.808;2023-03-15T06:47:10;3.63;;;1.42;;
62582;SDS011;48641;51.676;5.808;2023-03-15T06:49:36;3.35;;;1.40;;
62582;SDS011;48641;51.676;5.808;2023-03-15T06:52:02;3.88;;;1.50;;
62582;SDS011;48641;51.676;5.808;2023-03-15T06:54:29;4.25;;;1.50;;
62582;SDS011;48641;51.676;5.808;2023-03-15T06:56:55;2.90;;;1.30;;
62582;SDS011;48641;51.676;5.808;2023-03-15T06:59:21;4.60;;;1.70;;
62582;SDS011;48641;51.676;5.808;2023-03-15T07:01:46;4.95;;;1.40;;
62582;SDS011;48641;51.676;5.808;2023-03-15T07:04:12;3.85;;;1.52;;
62582;SDS011;48641;51.676;5.808;2023-03-15T07:06:38;4.85;;;1.50;;
62582;SDS011;48641;51.676;5.808;2023-03-15T07:09:03;3.50;;;1.40;;
62582;SDS011;48641;51.676;5.808;2023-03-15T07:11:32;5.28;;;1.50;;
62582;SDS011;48641;51.676;5.808;2023-03-15T07:13:58;3.65;;;1.35;;
62582;SDS011;48641;51.676;5.808;2023-03-15T07:16:24;3.53;;;1.30;;
62582;SDS011;48641;51.676;5.808;2023-03-15T07:18:50;4.70;;;1.50;;
62582;SDS011;48641;51.676;5.808;2023-03-15T07:23:44;4.47;;;1.40;;
62582;SDS011;48641;51.676;5.808;2023-03-15T07:26:10;3.58;;;1.50;;
62582;SDS011;48641;51.676;5.808;2023-03-15T07:28:36;5.07;;;1.38;;
62582;SDS011;48641;51.676;5.808;2023-03-15T07:31:02;3.03;;;1.30;;
62582;SDS011;48641;51.676;5.808;2023-03-15T07:33:29;5.07;;;1.60;;
62582;SDS011;48641;51.676;5.808;2023-03-15T07:35:56;4.45;;;1.50;;
62582;SDS011;48641;51.676;5.808;2023-03-15T07:38:23;3.70;;;1.30;;
62582;SDS011;48641;51.676;5.808;2023-03-15T07:40:50;5.30;;;1.30;;
62582;SDS011;48641;51.676;5.808;2023-03-15T07:43:16;4.60;;;1.33;;
62582;SDS011;48641;51.676;5.808;2023-03-15T07:45:42;4.50;;;1.30;;
62582;SDS011;48641;51.676;5.808;2023-03-15T07:48:08;6.35;;;1.40;;
62582;SDS011;48641;51.676;5.808;2023-03-15T07:50:33;3.28;;;1.30;;
62582;SDS011;48641;51.676;5.808;2023-03-15T07:52:59;3.38;;;1.15;;
62582;SDS011;48641;51.676;5.808;2023-03-15T07:55:25;4.82;;;1.40;;
62582;SDS011;48641;51.676;5.808;2023-03-15T07:57:50;3.67;;;1.40;;
62582;SDS011;48641;51.676;5.808;2023-03-15T08:00:16;4.10;;;1.20;;
62582;SDS011;48641;51.676;5.808;2023-03-15T08:02:42;5.22;;;1.40;;
62582;SDS011;48641;51.676;5.808;2023-03-15T08:05:08;2.88;;;1.15;;
62582;SDS011;48641;51.676;5.808;2023-03-15T08:07:34;3.67;;;1.30;;
62582;SDS011;48641;51.676;5.808;2023-03-15T08:10:01;3.03;;;1.17;;
62582;SDS011;48641;51.676;5.808;2023-03-15T08:12:29;4.32;;;1.20;;
62582;SDS011;48641;51.676;5.808;2023-03-15T08:14:55;3.67;;;1.40;;
62582;SDS011;48641;51.676;5.808;2023-03-15T08:17:20;3.20;;;1.20;;
62582;SDS011;48641;51.676;5.808;2023-03-15T08:19:46;2.88;;;1.10;;
62582;SDS011;48641;51.676;5.808;2023-03-15T08:22:12;3.45;;;1.20;;
62582;SDS011;48641;51.676;5.808;2023-03-15T08:24:37;3.85;;;1.15;;
62582;SDS011;48641;51.676;5.808;2023-03-15T08:27:03;3.83;;;1.30;;
62582;SDS011;48641;51.676;5.808;2023-03-15T08:29:29;2.65;;;1.30;;
62582;SDS011;48641;51.676;5.808;2023-03-15T08:31:55;3.70;;;1.27;;
62582;SDS011;48641;51.676;5.808;2023-03-15T08:34:21;3.10;;;1.00;;
62582;SDS011;48641;51.676;5.808;2023-03-15T08:36:47;2.97;;;1.58;;
62582;SDS011;48641;51.676;5.808;2023-03-15T08:39:13;3.58;;;1.02;;
62582;SDS011;48641;51.676;5.808;2023-03-15T08:41:39;3.22;;;1.08;;
62582;SDS011;48641;51.676;5.808;2023-03-15T08:44:07;4.53;;;1.25;;
62582;SDS011;48641;51.676;5.808;2023-03-15T08:46:33;3.45;;;1.10;;
62582;SDS011;48641;51.676;5.808;2023-03-15T08:48:59;3.05;;;1.20;;
62582;SDS011;48641;51.676;5.808;2023-03-15T08:51:24;4.45;;;1.15;;
62582;SDS011;48641;51.676;5.808;2023-03-15T08:53:51;3.30;;;1.10;;
62582;SDS011;48641;51.676;5.808;2023-03-15T08:56:17;2.00;;;0.90;;
62582;SDS011;48641;51.676;5.808;2023-03-15T08:58:43;3.72;;;1.20;;
62582;SDS011;48641;51.676;5.808;2023-03-15T09:01:13;3.92;;;1.10;;
62582;SDS011;48641;51.676;5.808;2023-03-15T09:03:39;2.15;;;0.90;;
62582;SDS011;48641;51.676;5.808;2023-03-15T09:06:06;4.15;;;1.20;;
62582;SDS011;48641;51.676;5.808;2023-03-15T09:08:33;2.67;;;0.85;;
62582;SDS011;48641;51.676;5.808;2023-03-15T09:10:59;3.05;;;1.10;;
62582;SDS011;48641;51.676;5.808;2023-03-15T09:13:25;2.40;;;0.80;;
62582;SDS011;48641;51.676;5.808;2023-03-15T09:15:52;2.47;;;0.88;;
62582;SDS011;48641;51.676;5.808;2023-03-15T09:18:19;3.25;;;1.17;;
62582;SDS011;48641;51.676;5.808;2023-03-15T09:20:45;2.35;;;0.90;;
62582;SDS011;48641;51.676;5.808;2023-03-15T09:23:11;2.30;;;0.95;;
62582;SDS011;48641;51.676;5.808;2023-03-15T09:25:38;2.83;;;1.10;;
62582;SDS011;48641;51.676;5.808;2023-03-15T09:28:04;2.47;;;1.05;;
62582;SDS011;48641;51.676;5.808;2023-03-15T09:30:32;2.63;;;0.80;;
62582;SDS011;48641;51.676;5.808;2023-03-15T09:32:58;3.00;;;1.20;;
62582;SDS011;48641;51.676;5.808;2023-03-15T09:35:24;2.92;;;1.00;;
62582;SDS011;48641;51.676;5.808;2023-03-15T09:37:50;3.50;;;1.00;;
62582;SDS011;48641;51.676;5.808;2023-03-15T09:45:27;3.40;;;0.93;;
62582;SDS011;48641;51.676;5.808;2023-03-15T09:48:07;3.67;;;0.93;;
62582;SDS011;48641;51.676;5.808;2023-03-15T09:50:41;2.25;;;0.93;;
62582;SDS011;48641;51.676;5.808;2023-03-15T09:56:30;2.10;;;0.85;;
62582;SDS011;48641;51.676;5.808;2023-03-15T09:59:00;3.47;;;1.00;;
62582;SDS011;48641;51.676;5.808;2023-03-15T10:01:28;2.33;;;0.70;;
62582;SDS011;48641;51.676;5.808;2023-03-15T10:04:04;2.22;;;0.90;;
62582;SDS011;48641;51.676;5.808;2023-03-15T10:06:56;2.65;;;0.90;;
62582;SDS011;48641;51.676;5.808;2023-03-15T10:09:25;2.00;;;0.90;;
62582;SDS011;48641;51.676;5.808;2023-03-15T10:17:32;2.22;;;0.82;;
62582;SDS011;48641;51.676;5.808;2023-03-15T10:20:05;2.30;;;0.77;;
62582;SDS011;48641;51.676;5.808;2023-03-15T10:22:38;1.35;;;0.63;;
62582;SDS011;48641;51.676;5.808;2023-03-15T10:25:29;2.15;;;0.90;;
62582;SDS011;48641;51.676;5.808;2023-03-15T10:30:26;1.30;;;0.77;;
62582;SDS011;48641;51.676;5.808;2023-03-15T10:32:57;3.38;;;0.93;;
62582;SDS011;48641;51.676;5.808;2023-03-15T10:35:24;3.58;;;0.75;;
62582;SDS011;48641;51.676;5.808;2023-03-15T10:37:50;5.28;;;1.00;;
62582;SDS011;48641;51.676;5.808;2023-03-15T10:40:16;2.30;;;0.80;;
62582;SDS011;48641;51.676;5.808;2023-03-15T10:43:43;4.03;;;0.90;;
62582;SDS011;48641;51.676;5.808;2023-03-15T10:46:10;2.55;;;0.77;;
62582;SDS011;48641;51.676;5.808;2023-03-15T10:48:51;3.20;;;0.77;;
62582;SDS011;48641;51.676;5.808;2023-03-15T10:51:30;2.15;;;0.68;;
62582;SDS011;48641;51.676;5.808;2023-03-15T10:53:58;3.15;;;0.85;;
62582;SDS011;48641;51.676;5.808;2023-03-15T10:59:21;2.22;;;0.65;;
62582;SDS011;48641;51.676;5.808;2023-03-15T11:01:52;4.55;;;0.90;;
62582;SDS011;48641;51.676;5.808;2023-03-15T11:04:31;2.33;;;0.75;;
62582;SDS011;48641;51.676;5.808;2023-03-15T11:09:36;1.98;;;0.70;;
62582;SDS011;48641;51.676;5.808;2023-03-15T11:12:06;3.88;;;0.90;;
62582;SDS011;48641;51.676;5.808;2023-03-15T11:14:57;2.70;;;0.80;;
62582;SDS011;48641;51.676;5.808;2023-03-15T11:17:27;2.15;;;0.50;;
62582;SDS011;48641;51.676;5.808;2023-03-15T11:19:56;2.08;;;0.65;;
62582;SDS011;48641;51.676;5.808;2023-03-15T11:22:33;1.73;;;0.52;;
62582;SDS011;48641;51.676;5.808;2023-03-15T11:24:59;3.35;;;0.73;;
62582;SDS011;48641;51.676;5.808;2023-03-15T11:27:24;1.92;;;0.68;;
62582;SDS011;48641;51.676;5.808;2023-03-15T11:29:54;2.17;;;0.68;;
62582;SDS011;48641;51.676;5.808;2023-03-15T11:32:26;2.38;;;0.75;;
62582;SDS011;48641;51.676;5.808;2023-03-15T11:34:59;3.20;;;0.77;;
62582;SDS011;48641;51.676;5.808;2023-03-15T11:37:48;2.75;;;0.70;;
62582;SDS011;48641;51.676;5.808;2023-03-15T11:40:22;5.22;;;0.80;;
62582;SDS011;48641;51.676;5.808;2023-03-15T11:43:00;2.17;;;0.73;;
62582;SDS011;48641;51.676;5.808;2023-03-15T11:45:52;2.85;;;0.73;;
62582;SDS011;48641;51.676;5.808;2023-03-15T11:48:42;1.92;;;0.80;;
62582;SDS011;48641;51.676;5.808;2023-03-15T11:51:15;2.05;;;0.70;;
62582;SDS011;48641;51.676;5.808;2023-03-15T11:53:43;1.08;;;0.55;;
62582;SDS011;48641;51.676;5.808;2023-03-15T11:56:25;3.30;;;0.63;;
62582;SDS011;48641;51.676;5.808;2023-03-15T11:59:06;3.70;;;0.80;;
62582;SDS011;48641;51.676;5.808;2023-03-15T12:01:35;2.63;;;0.60;;
62582;SDS011;48641;51.676;5.808;2023-03-15T12:06:48;2.67;;;0.70;;
62582;SDS011;48641;51.676;5.808;2023-03-15T12:10:18;18.52;;;1.70;;
62582;SDS011;48641;51.676;5.808;2023-03-15T12:22:36;5.70;;;1.05;;
62582;SDS011;48641;51.676;5.808;2023-03-15T12:25:10;2.42;;;0.80;;
62582;SDS011;48641;51.676;5.808;2023-03-15T12:27:42;2.63;;;0.73;;
62582;SDS011;48641;51.676;5.808;2023-03-15T12:30:22;8.70;;;0.90;;
62582;SDS011;48641;51.676;5.808;2023-03-15T12:32:55;5.13;;;0.70;;
62582;SDS011;48641;51.676;5.808;2023-03-15T12:35:21;5.70;;;0.80;;
62582;SDS011;48641;51.676;5.808;2023-03-15T12:37:52;2.28;;;0.60;;
62582;SDS011;48641;51.676;5.808;2023-03-15T12:42:59;5.87;;;0.77;;
62582;SDS011;48641;51.676;5.808;2023-03-15T12:53:03;3.58;;;0.73;;
62582;SDS011;48641;51.676;5.808;2023-03-15T12:55:38;7.90;;;0.90;;
62582;SDS011;48641;51.676;5.808;2023-03-15T12:58:05;3.08;;;0.60;;
62582;SDS011;48641;51.676;5.808;2023-03-15T13:00:36;3.78;;;0.73;;
62582;SDS011;48641;51.676;5.808;2023-03-15T13:03:13;3.60;;;0.60;;
62582;SDS011;48641;51.676;5.808;2023-03-15T13:08:21;2.10;;;0.65;;
62582;SDS011;48641;51.676;5.808;2023-03-15T13:13:24;3.40;;;0.65;;
62582;SDS011;48641;51.676;5.808;2023-03-15T13:19:12;1.52;;;0.50;;
62582;SDS011;48641;51.676;5.808;2023-03-15T13:24:59;3.45;;;0.75;;
62582;SDS011;48641;51.676;5.808;2023-03-15T13:36:01;3.80;;;0.65;;
62582;SDS011;48641;51.676;5.808;2023-03-15T13:38:30;2.53;;;0.70;;
62582;SDS011;48641;51.676;5.808;2023-03-15T13:41:24;2.50;;;0.50;;
62582;SDS011;48641;51.676;5.808;2023-03-15T13:43:56;3.15;;;0.65;;
62582;SDS011;48641;51.676;5.808;2023-03-15T13:46:25;2.22;;;0.55;;
62582;SDS011;48641;51.676;5.808;2023-03-15T13:48:53;3.55;;;0.60;;
62582;SDS011;48641;51.676;5.808;2023-03-15T13:51:27;2.47;;;0.60;;
62582;SDS011;48641;51.676;5.808;2023-03-15T13:53:59;1.05;;;0.50;;
62582;SDS011;48641;51.676;5.808;2023-03-15T13:56:29;2.75;;;0.68;;
62582;SDS011;48641;51.676;5.808;2023-03-15T13:58:57;2.75;;;0.60;;
62582;SDS011;48641;51.676;5.808;2023-03-15T14:01:23;2.65;;;0.73;;
62582;SDS011;48641;51.676;5.808;2023-03-15T14:03:55;3.10;;;0.63;;
62582;SDS011;48641;51.676;5.808;2023-03-15T14:06:29;1.08;;;0.40;;
62582;SDS011;48641;51.676;5.808;2023-03-15T14:09:17;3.25;;;1.08;;
62582;SDS011;48641;51.676;5.808;2023-03-15T14:11:42;5.05;;;0.70;;
62582;SDS011;48641;51.676;5.808;2023-03-15T14:19:24;9.88;;;1.20;;
62582;SDS011;48641;51.676;5.808;2023-03-15T14:22:13;10.80;;;1.13;;
62582;SDS011;48641;51.676;5.808;2023-03-15T14:24:42;6.63;;;0.90;;
62582;SDS011;48641;51.676;5.808;2023-03-15T14:29:45;6.43;;;1.08;;
62582;SDS011;48641;51.676;5.808;2023-03-15T14:32:22;6.68;;;0.93;;
62582;SDS011;48641;51.676;5.808;2023-03-15T14:35:01;2.83;;;0.95;;
62582;SDS011;48641;51.676;5.808;2023-03-15T14:37:40;6.18;;;1.98;;
62582;SDS011;48641;51.676;5.808;2023-03-15T14:40:17;4.65;;;0.70;;
62582;SDS011;48641;51.676;5.808;2023-03-15T14:42:45;6.00;;;0.82;;
62582;SDS011;48641;51.676;5.808;2023-03-15T14:45:11;2.85;;;0.65;;
62582;SDS011;48641;51.676;5.808;2023-03-15T14:47:40;3.70;;;0.68;;
62582;SDS011;48641;51.676;5.808;2023-03-15T14:50:12;6.07;;;0.77;;
62582;SDS011;48641;51.676;5.808;2023-03-15T14:52:39;3.67;;;0.90;;
62582;SDS011;48641;51.676;5.808;2023-03-15T14:55:09;5.80;;;0.85;;
62582;SDS011;48641;51.676;5.808;2023-03-15T14:57:37;2.78;;;0.55;;
62582;SDS011;48641;51.676;5.808;2023-03-15T15:00:02;3.15;;;0.80;;
62582;SDS011;48641;51.676;5.808;2023-03-15T15:02:29;3.72;;;0.70;;
62582;SDS011;48641;51.676;5.808;2023-03-15T15:04:57;3.22;;;0.65;;
62582;SDS011;48641;51.676;5.808;2023-03-15T15:09:51;4.47;;;0.77;;
62582;SDS011;48641;51.676;5.808;2023-03-15T15:12:17;4.63;;;0.60;;
62582;SDS011;48641;51.676;5.808;2023-03-15T15:14:43;2.63;;;0.60;;
62582;SDS011;48641;51.676;5.808;2023-03-15T15:17:09;3.00;;;0.65;;
62582;SDS011;48641;51.676;5.808;2023-03-15T15:19:35;6.50;;;1.00;;
62582;SDS011;48641;51.676;5.808;2023-03-15T15:22:01;9.40;;;1.02;;
62582;SDS011;48641;51.676;5.808;2023-03-15T15:24:27;7.05;;;1.02;;
62582;SDS011;48641;51.676;5.808;2023-03-15T15:26:53;7.18;;;0.90;;
62582;SDS011;48641;51.676;5.808;2023-03-15T15:29:18;7.90;;;1.50;;
62582;SDS011;48641;51.676;5.808;2023-03-15T15:31:44;8.40;;;1.02;;
62582;SDS011;48641;51.676;5.808;2023-03-15T15:34:10;15.73;;;1.55;;
62582;SDS011;48641;51.676;5.808;2023-03-15T15:36:41;8.95;;;0.90;;
62582;SDS011;48641;51.676;5.808;2023-03-15T15:41:47;7.90;;;0.88;;
62582;SDS011;48641;51.676;5.808;2023-03-15T15:44:14;5.47;;;1.10;;
62582;SDS011;48641;51.676;5.808;2023-03-15T15:46:41;5.97;;;1.23;;
62582;SDS011;48641;51.676;5.808;2023-03-15T15:49:07;5.65;;;0.73;;
62582;SDS011;48641;51.676;5.808;2023-03-15T15:51:36;5.35;;;0.80;;
62582;SDS011;48641;51.676;5.808;2023-03-15T15:54:11;5.13;;;0.73;;
62582;SDS011;48641;51.676;5.808;2023-03-15T15:56:51;4.93;;;0.70;;
62582;SDS011;48641;51.676;5.808;2023-03-15T15:59:20;4.63;;;0.80;;
62582;SDS011;48641;51.676;5.808;2023-03-15T16:01:49;4.63;;;0.77;;
62582;SDS011;48641;51.676;5.808;2023-03-15T16:04:15;8.25;;;1.20;;
62582;SDS011;48641;51.676;5.808;2023-03-15T16:06:41;3.80;;;0.77;;
62582;SDS011;48641;51.676;5.808;2023-03-15T16:09:08;8.68;;;1.20;;
62582;SDS011;48641;51.676;5.808;2023-03-15T16:11:36;4.38;;;0.90;;
62582;SDS011;48641;51.676;5.808;2023-03-15T16:14:03;4.38;;;1.08;;
62582;SDS011;48641;51.676;5.808;2023-03-15T16:16:29;4.28;;;0.90;;
62582;SDS011;48641;51.676;5.808;2023-03-15T16:18:55;4.70;;;0.90;;
62582;SDS011;48641;51.676;5.808;2023-03-15T16:24:03;6.32;;;1.13;;
62582;SDS011;48641;51.676;5.808;2023-03-15T16:26:29;4.18;;;0.88;;
62582;SDS011;48641;51.676;5.808;2023-03-15T16:28:55;5.43;;;1.08;;